Time;durP1;ratioP1;P1;durP2;ratioP2;P2;SDS_P1;SDS_P2;PMS_P1;PMS_P2;Temp;Humidity;BMP_temperature;BMP_pressure;BME280_temperature;BME280_humidity;BME280_pressure;Samples;Min_cycle;Max_cycle;Signal;HPM_P1;HPM_P2
2022/11/13 00:01:26;;;;;;;37.70;23.02;;;4.10;99.90;;;;;;5039841;28;20065;-81
2022/11/13 00:03:52;;;;;;;34.20;21.35;;;4.10;99.90;;;;;;5050577;28;20067;-82
2022/11/13 00:06:18;;;;;;;27.38;19.85;;;4.10;99.90;;;;;;5032975;28;20124;-86
2022/11/13 00:08:45;;;;;;;35.53;22.30;;;4.10;99.90;;;;;;5051408;28;20056;-80
2022/11/13 00:11:19;;;;;;;27.75;20.80;;;4.10;99.90;;;;;;5051488;28;20037;-82
2022/11/13 00:13:47;;;;;;;31.48;21.88;;;4.00;99.90;;;;;;5044775;28;20068;-82
2022/11/13 00:16:16;;;;;;;41.53;24.45;;;4.10;99.90;;;;;;5055085;28;20048;-82
2022/11/13 00:18:42;;;;;;;39.65;25.33;;;4.10;99.90;;;;;;5028974;28;20053;-81
2022/11/13 00:21:14;;;;;;;48.60;28.90;;;4.20;99.90;;;;;;5040198;28;20060;-82
2022/11/13 00:23:40;;;;;;;38.95;25.60;;;4.20;99.90;;;;;;5050948;28;20041;-81
2022/11/13 00:26:12;;;;;;;33.80;24.63;;;4.30;99.90;;;;;;5023541;28;20040;-81
2022/11/13 00:28:38;;;;;;;37.35;25.15;;;4.40;99.90;;;;;;5067869;28;20071;-81
2022/11/13 00:31:05;;;;;;;47.05;29.25;;;4.40;99.90;;;;;;5042265;28;20047;-81
2022/11/13 00:33:32;;;;;;;45.15;28.08;;;4.40;99.90;;;;;;5048111;28;20044;-83
2022/11/13 00:36:07;;;;;;;44.50;27.98;;;4.50;99.90;;;;;;5057754;28;20131;-81
2022/11/13 00:38:33;;;;;;;47.92;27.58;;;4.50;99.90;;;;;;5066767;28;20041;-82
2022/11/13 00:40:59;;;;;;;47.03;28.75;;;4.50;99.90;;;;;;5044022;28;20060;-81
2022/11/13 00:43:27;;;;;;;49.53;28.88;;;4.50;99.90;;;;;;5036767;28;20052;-84
2022/11/13 00:45:53;;;;;;;44.13;27.80;;;4.50;99.90;;;;;;5069511;28;20147;-82
2022/11/13 00:48:19;;;;;;;40.33;25.67;;;4.50;99.90;;;;;;5063748;28;20045;-82
2022/11/13 00:50:45;;;;;;;44.70;25.88;;;4.40;99.90;;;;;;5049516;28;20181;-82
2022/11/13 00:53:11;;;;;;;41.38;25.80;;;4.40;99.90;;;;;;5033742;28;20501;-83
2022/11/13 00:55:37;;;;;;;40.25;24.73;;;4.40;99.90;;;;;;5060200;28;20110;-81
2022/11/13 00:58:03;;;;;;;44.65;26.73;;;4.40;99.90;;;;;;5050308;28;20079;-82
2022/11/13 01:00:30;;;;;;;39.20;25.08;;;4.40;99.90;;;;;;5032363;28;20084;-80
2022/11/13 01:02:58;;;;;;;42.75;24.52;;;4.30;99.90;;;;;;5043847;28;20076;-83
2022/11/13 01:05:24;;;;;;;37.92;24.38;;;4.30;99.90;;;;;;5050038;28;20037;-81
2022/11/13 01:07:50;;;;;;;38.80;24.92;;;4.30;99.90;;;;;;5033931;28;20515;-80
2022/11/13 01:10:15;;;;;;;45.08;27.65;;;4.40;99.90;;;;;;5045734;28;20103;-80
2022/11/13 01:12:41;;;;;;;46.30;27.50;;;4.40;99.90;;;;;;5050585;28;20051;-80
2022/11/13 01:15:07;;;;;;;45.15;26.92;;;4.40;99.90;;;;;;5017770;28;20048;-81
2022/11/13 01:17:33;;;;;;;43.55;26.30;;;4.40;99.90;;;;;;5050751;28;20040;-81
2022/11/13 01:19:59;;;;;;;39.25;23.98;;;4.40;99.90;;;;;;5054429;28;20441;-81
2022/11/13 01:22:24;;;;;;;38.38;25.75;;;4.40;99.90;;;;;;5028473;28;20805;-82
2022/11/13 01:24:50;;;;;;;42.70;26.27;;;4.40;99.90;;;;;;5053461;28;20056;-81
2022/11/13 01:27:16;;;;;;;45.53;27.00;;;4.40;99.90;;;;;;5027016;28;20080;-81
2022/11/13 01:29:42;;;;;;;40.33;25.60;;;4.40;99.90;;;;;;5024677;28;20049;-81
2022/11/13 01:32:08;;;;;;;41.33;25.65;;;4.40;99.90;;;;;;5058095;28;20045;-80
2022/11/13 01:34:34;;;;;;;41.75;25.67;;;4.50;99.90;;;;;;5029532;28;20515;-80
2022/11/13 01:36:59;;;;;;;42.97;27.23;;;4.50;99.90;;;;;;5037427;28;20174;-80
2022/11/13 01:39:25;;;;;;;43.90;27.80;;;4.50;99.90;;;;;;5040278;28;20074;-81
2022/11/13 01:41:51;;;;;;;37.88;25.10;;;4.50;99.90;;;;;;5053518;28;20124;-80
2022/11/13 01:44:18;;;;;;;46.33;26.70;;;4.50;99.90;;;;;;5066690;28;20410;-80
2022/11/13 01:46:50;;;;;;;46.22;25.90;;;4.50;99.90;;;;;;5041253;28;20107;-80
2022/11/13 01:49:19;;;;;;;43.95;26.67;;;4.50;99.90;;;;;;5048976;28;20101;-81
2022/11/13 01:51:49;;;;;;;42.17;26.73;;;4.60;99.90;;;;;;5038388;28;20064;-80
2022/11/13 01:54:22;;;;;;;49.75;28.65;;;4.50;99.90;;;;;;5049241;28;20700;-80
2022/11/13 01:56:48;;;;;;;53.47;30.60;;;4.60;99.90;;;;;;5050438;28;20052;-80
2022/11/13 01:59:20;;;;;;;58.50;30.40;;;4.60;99.90;;;;;;5050287;28;20045;-80
2022/11/13 02:01:45;;;;;;;49.40;29.38;;;4.60;99.90;;;;;;5050942;28;20065;-81
2022/11/13 02:04:11;;;;;;;57.03;33.58;;;4.60;99.90;;;;;;5050249;28;20071;-81
2022/11/13 02:06:49;;;;;;;57.90;32.67;;;4.60;99.90;;;;;;5033175;28;20409;-83
2022/11/13 02:09:19;;;;;;;51.55;31.55;;;4.60;99.90;;;;;;5046594;28;20056;-81
2022/11/13 02:11:45;;;;;;;52.53;33.17;;;4.60;99.90;;;;;;5044564;28;20052;-82
2022/11/13 02:14:12;;;;;;;56.13;34.35;;;4.60;99.90;;;;;;5049612;28;20048;-80
2022/11/13 02:16:40;;;;;;;65.97;38.15;;;4.60;99.90;;;;;;5062912;28;20490;-87
2022/11/13 02:19:13;;;;;;;63.85;37.15;;;4.60;99.90;;;;;;5061538;28;20254;-81
2022/11/13 02:22:08;;;;;;;60.25;36.88;;;4.60;99.90;;;;;;5051813;28;20052;-85
2022/11/13 02:24:39;;;;;;;62.75;36.55;;;4.70;99.90;;;;;;5050036;28;20052;-83
2022/11/13 02:27:09;;;;;;;65.00;36.97;;;4.70;99.90;;;;;;5062125;28;20122;-80
2022/11/13 02:29:35;;;;;;;58.47;34.97;;;4.70;99.90;;;;;;5048680;28;20049;-81
2022/11/13 02:32:01;;;;;;;59.85;36.20;;;4.70;99.90;;;;;;5042261;28;20040;-80
2022/11/13 02:34:27;;;;;;;64.10;36.58;;;4.80;99.90;;;;;;5063067;28;20049;-80
2022/11/13 02:36:53;;;;;;;63.15;37.15;;;4.80;99.90;;;;;;5044294;28;20056;-81
2022/11/13 02:39:18;;;;;;;60.40;36.40;;;4.80;99.90;;;;;;5063714;28;20107;-80
2022/11/13 02:41:44;;;;;;;68.25;37.03;;;4.80;99.90;;;;;;5060515;28;20072;-79
2022/11/13 02:44:10;;;;;;;71.90;37.53;;;4.80;99.90;;;;;;5035162;28;20037;-80
2022/11/13 02:46:36;;;;;;;63.38;35.67;;;4.80;99.90;;;;;;5045032;28;20401;-80
2022/11/13 02:49:02;;;;;;;63.38;36.88;;;4.80;99.90;;;;;;5055180;28;20127;-81
2022/11/13 02:51:28;;;;;;;61.08;36.47;;;4.70;99.90;;;;;;5073085;28;20033;-80
2022/11/13 02:53:54;;;;;;;60.10;35.83;;;4.80;99.90;;;;;;5065627;28;20045;-80
2022/11/13 02:56:20;;;;;;;57.00;34.28;;;4.70;99.90;;;;;;5062560;28;20044;-79
2022/11/13 02:58:45;;;;;;;57.33;34.78;;;4.70;99.90;;;;;;5067623;28;20073;-81
2022/11/13 03:01:11;;;;;;;61.15;35.35;;;4.70;99.90;;;;;;5036681;28;20152;-80
2022/11/13 03:03:37;;;;;;;61.80;35.65;;;4.70;99.90;;;;;;5056194;28;20086;-80
2022/11/13 03:06:02;;;;;;;52.30;33.95;;;4.70;99.90;;;;;;5029703;28;20325;-81
2022/11/13 03:08:28;;;;;;;59.30;35.47;;;4.70;99.90;;;;;;5042476;28;20106;-80
2022/11/13 03:10:54;;;;;;;58.58;33.95;;;4.70;99.90;;;;;;5043125;28;20437;-81
2022/11/13 03:13:20;;;;;;;54.80;33.70;;;4.70;99.90;;;;;;5052302;28;20114;-80
2022/11/13 03:15:45;;;;;;;54.88;33.30;;;4.70;99.90;;;;;;5053532;28;20103;-84
2022/11/13 03:18:11;;;;;;;53.50;33.45;;;4.80;99.90;;;;;;5019900;28;20045;-81
2022/11/13 03:20:40;;;;;;;59.65;33.72;;;4.80;99.90;;;;;;5073382;28;20043;-81
2022/11/13 03:23:05;;;;;;;47.60;31.20;;;4.90;99.90;;;;;;5072566;28;20060;-80
2022/11/13 03:25:32;;;;;;;59.90;34.85;;;4.90;99.90;;;;;;5029069;28;20049;-81
2022/11/13 03:27:58;;;;;;;53.40;31.92;;;4.90;99.90;;;;;;5049339;28;20053;-79
2022/11/13 03:30:25;;;;;;;53.45;31.42;;;4.90;99.90;;;;;;5072954;28;20056;-80
2022/11/13 03:32:54;;;;;;;60.15;34.00;;;4.90;99.90;;;;;;5040948;28;20044;-80
2022/11/13 03:35:21;;;;;;;52.55;32.05;;;4.80;99.90;;;;;;5019655;28;20048;-80
2022/11/13 03:37:47;;;;;;;54.75;32.40;;;4.80;99.90;;;;;;5033162;28;20609;-80
2022/11/13 03:40:13;;;;;;;46.30;31.40;;;4.80;99.90;;;;;;5016161;28;20124;-80
2022/11/13 03:42:39;;;;;;;52.78;32.65;;;4.80;99.90;;;;;;5052402;28;20509;-80
2022/11/13 03:45:05;;;;;;;51.58;32.53;;;4.80;99.90;;;;;;5062513;28;20429;-80
2022/11/13 03:47:30;;;;;;;61.00;34.53;;;4.80;99.90;;;;;;5053593;28;20084;-80
2022/11/13 03:49:56;;;;;;;64.90;36.78;;;4.80;99.90;;;;;;5055139;28;20080;-81
2022/11/13 03:52:22;;;;;;;57.13;34.35;;;4.80;99.90;;;;;;5052467;28;20052;-81
2022/11/13 03:54:47;;;;;;;59.08;33.83;;;4.80;99.90;;;;;;5038630;28;20483;-81
2022/11/13 03:57:13;;;;;;;57.97;35.13;;;4.70;99.90;;;;;;5045549;28;20080;-80
2022/11/13 03:59:39;;;;;;;56.05;33.03;;;4.70;99.90;;;;;;5052551;28;20060;-80
2022/11/13 04:02:04;;;;;;;65.50;36.20;;;4.70;99.90;;;;;;5017785;28;20049;-81
2022/11/13 04:04:30;;;;;;;62.10;34.05;;;4.70;99.90;;;;;;5007488;28;20147;-80
2022/11/13 04:06:56;;;;;;;59.33;33.47;;;4.60;99.90;;;;;;5018781;28;20180;-82
2022/11/13 04:09:21;;;;;;;54.42;31.17;;;4.50;99.90;;;;;;5054670;28;20174;-80
2022/11/13 04:11:56;;;;;;;61.88;32.42;;;4.50;99.90;;;;;;5057226;28;20048;-82
2022/11/13 04:14:22;;;;;;;59.95;32.90;;;4.40;99.90;;;;;;5036241;28;20524;-79
2022/11/13 04:16:47;;;;;;;53.55;32.08;;;4.40;99.90;;;;;;5044843;28;20060;-80
2022/11/13 04:19:13;;;;;;;66.15;33.70;;;4.50;99.90;;;;;;5033783;28;20056;-79
2022/11/13 04:21:39;;;;;;;53.38;32.60;;;4.40;99.90;;;;;;5034207;28;20037;-79
2022/11/13 04:24:05;;;;;;;56.58;32.65;;;4.40;99.90;;;;;;5030609;28;20688;-79
2022/11/13 04:26:30;;;;;;;55.83;33.35;;;4.50;99.90;;;;;;5061710;28;20440;-79
2022/11/13 04:28:56;;;;;;;72.45;35.38;;;4.50;99.90;;;;;;5033649;28;20060;-85
2022/11/13 04:31:21;;;;;;;64.05;34.42;;;4.50;99.90;;;;;;5067629;28;20397;-79
2022/11/13 04:33:47;;;;;;;54.67;32.17;;;4.50;99.90;;;;;;5059989;28;20041;-79
2022/11/13 04:36:13;;;;;;;56.83;34.60;;;4.50;99.90;;;;;;5062526;28;20040;-80
2022/11/13 04:38:38;;;;;;;57.33;32.22;;;4.40;99.90;;;;;;5057992;28;20110;-79
2022/11/13 04:43:48;;;;;;;57.67;32.03;;;4.40;99.90;;;;;;5063801;28;20052;-80
2022/11/13 04:46:14;;;;;;;53.50;31.73;;;4.40;99.90;;;;;;5034756;28;20040;-81
2022/11/13 04:48:39;;;;;;;54.55;31.15;;;4.40;99.90;;;;;;5056104;28;20044;-80
2022/11/13 04:51:05;;;;;;;49.35;29.92;;;4.40;99.90;;;;;;5050053;28;20540;-80
2022/11/13 04:53:30;;;;;;;53.50;30.67;;;4.30;99.90;;;;;;5017191;28;20099;-80
2022/11/13 04:55:56;;;;;;;55.28;31.83;;;4.40;99.90;;;;;;5058462;28;20131;-80
2022/11/13 04:58:22;;;;;;;52.50;31.05;;;4.40;99.90;;;;;;5054767;28;20232;-81
2022/11/13 05:00:47;;;;;;;52.38;30.33;;;4.30;99.90;;;;;;5003526;28;20114;-81
2022/11/13 05:03:13;;;;;;;55.50;31.92;;;4.40;99.90;;;;;;5035020;28;20049;-80
2022/11/13 05:05:39;;;;;;;49.75;30.90;;;4.30;99.90;;;;;;5042634;28;20772;-79
2022/11/13 05:08:04;;;;;;;59.00;31.42;;;4.30;99.90;;;;;;5050201;28;20441;-80
2022/11/13 05:10:30;;;;;;;60.28;33.58;;;4.30;99.90;;;;;;5050975;28;20041;-80
2022/11/13 05:12:56;;;;;;;60.92;33.05;;;4.30;99.90;;;;;;5034371;28;20051;-79
2022/11/13 05:15:21;;;;;;;56.17;32.97;;;4.30;99.90;;;;;;5030435;28;20038;-80
2022/11/13 05:17:50;;;;;;;52.50;31.08;;;4.20;99.90;;;;;;5023331;28;20404;-80
2022/11/13 05:20:16;;;;;;;51.92;30.90;;;4.20;99.90;;;;;;5012528;28;20041;-79
2022/11/13 05:22:41;;;;;;;56.85;32.58;;;4.20;99.90;;;;;;5043905;28;20482;-80
2022/11/13 05:25:07;;;;;;;58.00;33.00;;;4.20;99.90;;;;;;5028296;28;20406;-79
2022/11/13 05:27:33;;;;;;;56.60;32.28;;;4.20;99.90;;;;;;5023331;28;20163;-80
2022/11/13 05:29:59;;;;;;;56.90;31.88;;;4.30;99.90;;;;;;5019924;28;20044;-80
2022/11/13 05:32:24;;;;;;;55.05;31.83;;;4.20;99.90;;;;;;5051319;28;20186;-79
2022/11/13 05:34:50;;;;;;;56.85;31.67;;;4.20;99.90;;;;;;5034462;28;20053;-78
2022/11/13 05:37:16;;;;;;;55.05;32.20;;;4.20;99.90;;;;;;5038155;28;20050;-81
2022/11/13 05:39:41;;;;;;;57.75;32.58;;;4.20;99.90;;;;;;5033765;28;20071;-79
2022/11/13 05:42:07;;;;;;;58.13;32.50;;;4.20;99.90;;;;;;5034310;28;20052;-86
2022/11/13 05:44:33;;;;;;;50.47;31.45;;;4.20;99.90;;;;;;5033663;28;20045;-80
2022/11/13 05:46:58;;;;;;;52.53;30.67;;;4.20;99.90;;;;;;5050172;28;20106;-80
2022/11/13 05:49:24;;;;;;;54.55;31.55;;;4.10;99.90;;;;;;5048980;28;20037;-80
2022/11/13 05:51:50;;;;;;;50.70;30.67;;;4.10;99.90;;;;;;5050643;28;20037;-80
2022/11/13 05:54:15;;;;;;;51.08;32.33;;;4.10;99.90;;;;;;5034357;28;20131;-80
2022/11/13 05:56:41;;;;;;;59.95;31.38;;;4.10;99.90;;;;;;5016263;28;20437;-82
2022/11/13 05:59:07;;;;;;;53.05;31.75;;;4.00;99.90;;;;;;5014400;28;20708;-80
2022/11/13 06:01:36;;;;;;;57.10;32.55;;;4.10;99.90;;;;;;5040747;28;20414;-81
2022/11/13 06:04:03;;;;;;;50.55;31.17;;;4.10;99.90;;;;;;5026531;28;20095;-81
2022/11/13 06:06:29;;;;;;;51.95;31.60;;;4.00;99.90;;;;;;5030409;28;20379;-80
2022/11/13 06:08:57;;;;;;;56.08;33.08;;;4.00;99.90;;;;;;5037818;28;20059;-81
2022/11/13 06:11:25;;;;;;;57.30;32.40;;;3.90;99.90;;;;;;5051636;28;20380;-81
2022/11/13 06:13:51;;;;;;;56.25;33.25;;;3.90;99.90;;;;;;5037312;28;20095;-80
2022/11/13 06:16:22;;;;;;;58.65;33.60;;;3.90;99.90;;;;;;5047906;28;20056;-80
2022/11/13 06:18:49;;;;;;;58.40;32.13;;;3.90;99.90;;;;;;5033225;28;20045;-79
2022/11/13 06:21:17;;;;;;;57.00;32.47;;;3.90;99.90;;;;;;5039105;28;20049;-87
2022/11/13 06:23:43;;;;;;;61.58;33.08;;;3.90;99.90;;;;;;5034291;28;20469;-80
2022/11/13 06:26:15;;;;;;;55.92;33.25;;;3.90;99.90;;;;;;5052452;28;20395;-80
2022/11/13 06:28:41;;;;;;;59.75;33.95;;;3.90;99.90;;;;;;5052966;28;20091;-80
2022/11/13 06:31:13;;;;;;;54.25;32.63;;;3.90;99.90;;;;;;5052517;28;20060;-80
2022/11/13 06:33:40;;;;;;;62.42;33.90;;;3.90;99.90;;;;;;5042833;28;20127;-80
2022/11/13 06:36:15;;;;;;;56.67;32.53;;;3.90;99.90;;;;;;5017144;28;20256;-80
2022/11/13 06:38:41;;;;;;;57.35;32.80;;;3.90;99.90;;;;;;5062000;28;20063;-80
2022/11/13 06:41:09;;;;;;;57.88;32.40;;;3.90;99.90;;;;;;5056106;28;20092;-79
2022/11/13 06:43:35;;;;;;;53.53;31.92;;;4.00;99.90;;;;;;5059617;28;20071;-81
2022/11/13 06:46:07;;;;;;;53.75;32.20;;;4.00;99.90;;;;;;5057547;28;20059;-80
2022/11/13 06:48:33;;;;;;;55.60;33.33;;;4.00;99.90;;;;;;5066460;28;20067;-80
2022/11/13 06:51:08;;;;;;;56.67;32.70;;;4.00;99.90;;;;;;5030831;28;20077;-79
2022/11/13 06:53:40;;;;;;;55.50;31.30;;;4.10;99.90;;;;;;5047463;28;20461;-79
2022/11/13 06:56:09;;;;;;;57.13;31.65;;;4.00;99.90;;;;;;5039431;28;20345;-79
2022/11/13 06:58:36;;;;;;;54.80;30.85;;;4.00;99.90;;;;;;5052196;28;20116;-80
2022/11/13 07:01:13;;;;;;;56.78;32.15;;;4.00;99.90;;;;;;5051772;28;20159;-80
2022/11/13 07:03:39;;;;;;;57.97;32.10;;;4.10;99.90;;;;;;5045052;28;20041;-79
2022/11/13 07:06:07;;;;;;;56.95;33.03;;;4.00;99.90;;;;;;5031839;28;20060;-83
2022/11/13 07:08:33;;;;;;;58.75;32.75;;;4.00;99.90;;;;;;5039534;28;20092;-79
2022/11/13 07:10:59;;;;;;;50.97;31.50;;;4.00;99.90;;;;;;5053014;28;20478;-79
2022/11/13 07:13:26;;;;;;;58.85;33.50;;;4.00;99.90;;;;;;5050913;28;20041;-82
2022/11/13 07:15:52;;;;;;;46.72;30.20;;;4.00;99.90;;;;;;5037352;28;20083;-80
2022/11/13 07:18:18;;;;;;;53.47;30.02;;;3.90;99.90;;;;;;5051087;28;20076;-79
2022/11/13 07:20:43;;;;;;;50.95;31.52;;;3.80;99.90;;;;;;5060258;28;20083;-80
2022/11/13 07:23:09;;;;;;;56.78;31.85;;;3.90;99.90;;;;;;5070255;28;20555;-80
2022/11/13 07:25:35;;;;;;;54.53;31.40;;;3.80;99.90;;;;;;5054538;28;20045;-81
2022/11/13 07:28:01;;;;;;;53.53;31.25;;;3.80;99.90;;;;;;5063478;28;20053;-80
2022/11/13 07:30:26;;;;;;;54.58;31.17;;;3.80;99.90;;;;;;5034146;28;20516;-79
2022/11/13 07:32:52;;;;;;;54.58;31.27;;;3.80;99.90;;;;;;5044635;28;20110;-80
2022/11/13 07:35:18;;;;;;;50.88;30.02;;;3.80;99.90;;;;;;5033370;28;20120;-79
2022/11/13 07:37:44;;;;;;;51.78;30.77;;;3.80;99.90;;;;;;5048649;28;20052;-79
2022/11/13 07:40:11;;;;;;;52.35;30.90;;;3.90;99.90;;;;;;5062269;28;20412;-79
2022/11/13 07:42:37;;;;;;;49.13;30.83;;;3.90;99.90;;;;;;5033048;28;21000;-79
2022/11/13 07:45:04;;;;;;;50.00;31.15;;;3.90;99.90;;;;;;5052921;28;20055;-80
2022/11/13 07:47:30;;;;;;;50.90;31.48;;;3.90;99.90;;;;;;5053301;28;20036;-78
2022/11/13 07:49:55;;;;;;;56.88;32.53;;;4.00;99.90;;;;;;5011062;28;20496;-82
2022/11/13 07:52:21;;;;;;;50.83;31.30;;;3.90;99.90;;;;;;5049751;28;20106;-82
2022/11/13 07:54:47;;;;;;;50.70;30.10;;;4.00;99.90;;;;;;5031374;28;20045;-81
2022/11/13 07:57:13;;;;;;;48.50;29.92;;;4.10;99.90;;;;;;5046944;28;20049;-80
2022/11/13 07:59:39;;;;;;;52.08;31.08;;;4.00;99.90;;;;;;5046789;28;20049;-79
2022/11/13 08:02:14;;;;;;;49.70;31.08;;;4.20;99.90;;;;;;5040545;28;20052;-79
2022/11/13 08:04:40;;;;;;;52.47;30.17;;;4.20;99.90;;;;;;5050620;28;20490;-79
2022/11/13 08:07:06;;;;;;;103.35;61.03;;;4.20;99.90;;;;;;5031719;28;20111;-81
2022/11/13 08:09:32;;;;;;;47.42;29.52;;;4.30;99.90;;;;;;5048930;28;20057;-81
2022/11/13 08:11:57;;;;;;;49.42;31.42;;;4.30;99.90;;;;;;5033837;28;20048;-81
2022/11/13 08:14:23;;;;;;;48.35;31.73;;;4.30;99.90;;;;;;5033031;28;20486;-81
2022/11/13 08:16:49;;;;;;;44.65;29.00;;;4.30;99.90;;;;;;5017607;28;20056;-79
2022/11/13 08:19:14;;;;;;;43.20;27.50;;;4.40;99.90;;;;;;5025169;28;20479;-80
2022/11/13 08:21:40;;;;;;;45.20;30.17;;;4.40;99.90;;;;;;5038257;28;20045;-80
2022/11/13 08:24:06;;;;;;;45.97;28.73;;;4.40;99.90;;;;;;5041038;28;20045;-80
2022/11/13 08:26:31;;;;;;;51.22;30.63;;;4.40;99.90;;;;;;5032745;28;20044;-86
2022/11/13 08:28:57;;;;;;;41.65;28.92;;;4.50;99.90;;;;;;5050900;28;20045;-79
2022/11/13 08:31:23;;;;;;;43.25;28.52;;;4.50;99.90;;;;;;5039106;28;20040;-80
2022/11/13 08:33:48;;;;;;;43.75;28.63;;;4.60;99.90;;;;;;5043614;28;20120;-79
2022/11/13 08:36:14;;;;;;;41.00;28.35;;;4.70;99.90;;;;;;5055253;28;20119;-78
2022/11/13 08:38:40;;;;;;;43.45;29.05;;;4.70;99.90;;;;;;5058209;28;20052;-79
2022/11/13 08:41:06;;;;;;;42.15;27.70;;;4.70;99.90;;;;;;5036138;28;20458;-81
2022/11/13 08:43:31;;;;;;;41.17;28.35;;;4.70;99.90;;;;;;5057173;28;20056;-80
2022/11/13 08:45:57;;;;;;;39.80;27.02;;;4.80;99.90;;;;;;5016804;28;20051;-80
2022/11/13 08:48:23;;;;;;;42.67;28.23;;;4.80;99.90;;;;;;5024895;28;20045;-81
2022/11/13 08:50:54;;;;;;;42.15;29.27;;;4.90;99.90;;;;;;5048643;28;20044;-80
2022/11/13 08:53:20;;;;;;;44.70;28.27;;;4.90;99.90;;;;;;5048910;28;20453;-80
2022/11/13 08:55:46;;;;;;;37.38;26.63;;;5.00;99.90;;;;;;5054041;28;20052;-81
2022/11/13 08:58:12;;;;;;;41.63;28.42;;;5.00;99.90;;;;;;5052168;28;20474;-80
2022/11/13 09:00:38;;;;;;;35.80;24.75;;;5.00;99.90;;;;;;5051026;28;20497;-80
2022/11/13 09:03:04;;;;;;;40.90;27.40;;;5.00;99.90;;;;;;5059372;28;20049;-78
2022/11/13 09:05:30;;;;;;;36.35;24.88;;;5.00;99.90;;;;;;5051031;28;20110;-78
2022/11/13 09:07:58;;;;;;;40.85;28.00;;;5.10;99.90;;;;;;5052730;28;20242;-82
2022/11/13 09:10:25;;;;;;;33.47;24.98;;;5.20;99.90;;;;;;5033532;28;20123;-79
2022/11/13 09:12:57;;;;;;;32.58;23.63;;;5.20;99.90;;;;;;5038634;28;20099;-79
2022/11/13 09:15:23;;;;;;;32.58;23.15;;;5.30;99.90;;;;;;5050496;28;20068;-79
2022/11/13 09:17:49;;;;;;;30.98;22.00;;;5.40;99.90;;;;;;5056471;28;20186;-77
2022/11/13 09:20:15;;;;;;;27.48;21.73;;;5.50;99.90;;;;;;5053919;28;20044;-77
2022/11/13 09:22:41;;;;;;;33.65;23.05;;;5.50;99.90;;;;;;5039244;28;20075;-79
2022/11/13 09:25:07;;;;;;;35.15;25.25;;;5.60;99.90;;;;;;5029117;28;20091;-79
2022/11/13 09:27:32;;;;;;;32.13;21.08;;;5.70;99.90;;;;;;5047995;28;20045;-83
2022/11/13 09:29:58;;;;;;;33.70;21.48;;;5.70;99.90;;;;;;5035496;28;20037;-77
2022/11/13 09:32:24;;;;;;;29.73;21.98;;;5.80;99.90;;;;;;5053369;28;20155;-79
2022/11/13 09:34:49;;;;;;;28.83;21.10;;;5.80;99.90;;;;;;5031213;28;20081;-81
2022/11/13 09:37:15;;;;;;;32.95;23.88;;;5.90;99.90;;;;;;5049888;28;20045;-80
2022/11/13 09:39:41;;;;;;;25.90;20.95;;;5.90;99.90;;;;;;5043745;28;20056;-87
2022/11/13 09:42:23;;;;;;;32.13;21.85;;;6.00;99.90;;;;;;5057265;28;20146;-79
2022/11/13 09:44:57;;;;;;;26.52;20.00;;;6.00;99.90;;;;;;5047415;28;20386;-78
2022/11/13 09:47:43;;;;;;;25.25;19.35;;;6.10;99.90;;;;;;5050248;28;20222;-78
2022/11/13 09:50:22;;;;;;;27.05;20.48;;;6.10;99.90;;;;;;5026244;28;20064;-78
2022/11/13 09:52:48;;;;;;;27.27;20.15;;;6.10;99.90;;;;;;5055617;28;20036;-83
2022/11/13 09:55:23;;;;;;;28.02;20.63;;;6.20;99.90;;;;;;5047515;28;20067;-80
2022/11/13 09:58:16;;;;;;;29.27;20.20;;;6.20;99.90;;;;;;5053065;28;20068;-80
2022/11/13 10:00:42;;;;;;;25.65;18.85;;;6.20;99.90;;;;;;5070382;28;20053;-80
2022/11/13 10:03:35;;;;;;;22.90;18.45;;;6.20;99.90;;;;;;5049298;28;20052;-78
2022/11/13 10:06:13;;;;;;;24.13;19.52;;;6.40;99.90;;;;;;5036983;28;20135;-82
2022/11/13 10:08:47;;;;;;;24.35;18.65;;;6.50;99.90;;;;;;5037110;28;20086;-80
2022/11/13 10:11:19;;;;;;;21.88;18.35;;;6.60;99.90;;;;;;5063110;28;20049;-80
2022/11/13 10:13:46;;;;;;;24.42;19.42;;;6.70;99.90;;;;;;5050464;28;20090;-83
2022/11/13 10:16:33;;;;;;;21.23;17.23;;;6.70;99.90;;;;;;5061180;28;20076;-79
2022/11/13 10:19:05;;;;;;;23.75;17.98;;;6.80;99.90;;;;;;5039522;28;20119;-79
2022/11/13 10:21:48;;;;;;;22.85;16.52;;;6.80;99.90;;;;;;5049434;28;20049;-79
2022/11/13 10:24:24;;;;;;;21.90;15.63;;;6.90;99.90;;;;;;5038022;28;20504;-79
2022/11/13 10:26:50;;;;;;;19.45;15.52;;;6.90;99.90;;;;;;5026666;28;20194;-79
2022/11/13 10:29:19;;;;;;;20.60;16.65;;;7.00;99.90;;;;;;5041330;28;20123;-85
2022/11/13 10:31:51;;;;;;;21.55;15.88;;;7.10;99.90;;;;;;5049102;28;20056;-84
2022/11/13 10:34:17;;;;;;;18.92;14.77;;;7.10;99.90;;;;;;5049997;28;20067;-79
2022/11/13 10:37:21;;;;;;;18.10;14.48;;;7.20;99.90;;;;;;5041056;28;20554;-80
2022/11/13 10:39:46;;;;;;;19.02;14.30;;;7.20;99.90;;;;;;5029984;28;20216;-86
2022/11/13 10:42:39;;;;;;;18.23;14.75;;;7.30;99.90;;;;;;5015538;28;20061;-79
2022/11/13 10:45:16;;;;;;;16.55;13.95;;;7.50;99.90;;;;;;5039561;28;20059;-79
2022/11/13 10:47:48;;;;;;;14.05;12.20;;;7.60;99.90;;;;;;5049716;28;20072;-81
2022/11/13 10:50:26;;;;;;;18.95;13.15;;;7.70;99.90;;;;;;5050002;28;20049;-80
2022/11/13 10:52:54;;;;;;;14.38;11.68;;;7.90;99.90;;;;;;5043886;28;20088;-80
2022/11/13 10:55:37;;;;;;;14.60;12.13;;;8.00;99.90;;;;;;5030511;28;20502;-80
2022/11/13 10:58:15;;;;;;;18.83;13.45;;;8.20;99.90;;;;;;5047629;28;20490;-80
2022/11/13 11:00:43;;;;;;;16.88;13.50;;;8.30;99.90;;;;;;5047997;28;20048;-80
2022/11/13 11:03:23;;;;;;;14.82;12.45;;;8.40;99.90;;;;;;5019468;28;20049;-79
2022/11/13 11:05:55;;;;;;;15.85;12.32;;;8.50;99.90;;;;;;5015496;28;20056;-85
2022/11/13 11:08:38;;;;;;;14.00;11.82;;;8.50;99.90;;;;;;5047730;28;20134;-82
2022/11/13 11:14:34;;;;;;;17.35;12.85;;;8.70;99.90;;;;;;5045047;28;20138;-80
2022/11/13 11:17:02;;;;;;;18.52;14.55;;;8.70;99.90;;;;;;5032719;28;20056;-81
2022/11/13 11:19:35;;;;;;;16.75;14.60;;;8.70;99.90;;;;;;5035437;28;20049;-79
2022/11/13 11:22:16;;;;;;;16.20;13.30;;;8.80;99.90;;;;;;5044972;28;20045;-79
2022/11/13 11:25:05;;;;;;;14.85;13.23;;;8.90;99.90;;;;;;5038988;28;20557;-80
2022/11/13 11:27:38;;;;;;;15.90;12.75;;;8.90;99.90;;;;;;5042284;28;20102;-80
2022/11/13 11:30:22;;;;;;;16.95;13.15;;;9.00;99.90;;;;;;5051881;28;20044;-79
2022/11/13 11:33:07;;;;;;;13.52;11.35;;;9.10;99.90;;;;;;5038679;28;20044;-81
2022/11/13 11:36:04;;;;;;;15.63;11.33;;;9.10;99.90;;;;;;5045346;28;20045;-80
2022/11/13 11:39:06;;;;;;;14.27;11.38;;;9.20;99.90;;;;;;5012598;28;20118;-79
2022/11/13 11:41:51;;;;;;;12.55;10.98;;;9.30;99.90;;;;;;5039788;28;20150;-80
2022/11/13 11:44:34;;;;;;;15.60;11.57;;;9.30;99.90;;;;;;5024086;28;20049;-79
2022/11/13 11:46:59;;;;;;;12.80;10.55;;;9.40;99.90;;;;;;5050808;28;20077;-79
2022/11/13 11:49:26;;;;;;;12.57;10.77;;;9.40;99.90;;;;;;5034441;28;20130;-79
2022/11/13 11:52:30;;;;;;;14.27;11.10;;;9.50;99.90;;;;;;5034196;28;20098;-84
2022/11/13 11:55:01;;;;;;;13.23;10.88;;;9.50;99.90;;;;;;5028354;28;20070;-86
2022/11/13 11:57:33;;;;;;;13.85;10.35;;;9.50;99.90;;;;;;5051465;28;20081;-80
2022/11/13 12:00:08;;;;;;;15.60;11.00;;;9.50;99.90;;;;;;5049849;28;20486;-82
2022/11/13 12:02:34;;;;;;;13.50;10.98;;;9.50;99.90;;;;;;5038086;28;20088;-79
2022/11/13 12:05:00;;;;;;;17.02;12.52;;;9.60;99.90;;;;;;5030377;28;20068;-86
2022/11/13 12:07:39;;;;;;;15.15;11.80;;;9.60;99.90;;;;;;5032195;28;20036;-81
2022/11/13 12:10:47;;;;;;;13.63;10.57;;;9.70;99.90;;;;;;5048928;28;20078;-79
2022/11/13 12:13:24;;;;;;;12.82;9.88;;;9.70;99.90;;;;;;5017473;28;20049;-81
2022/11/13 12:16:08;;;;;;;10.90;9.50;;;9.70;99.90;;;;;;5028886;28;20262;-82
2022/11/13 12:18:39;;;;;;;12.60;9.35;;;9.70;99.90;;;;;;5047637;28;20049;-79
2022/11/13 12:21:16;;;;;;;13.77;9.95;;;9.70;99.90;;;;;;5044510;28;20048;-79
2022/11/13 12:23:57;;;;;;;9.98;8.57;;;9.70;99.90;;;;;;5040358;28;20060;-79
2022/11/13 12:26:36;;;;;;;12.68;9.50;;;9.80;99.90;;;;;;5042390;28;20479;-81
2022/11/13 12:29:36;;;;;;;11.80;9.43;;;9.80;99.90;;;;;;5036116;28;20497;-86
2022/11/13 12:32:29;;;;;;;14.35;9.43;;;9.80;99.90;;;;;;5039321;28;20194;-85
2022/11/13 12:35:01;;;;;;;13.65;8.32;;;9.80;99.90;;;;;;5029281;28;20102;-82
2022/11/13 12:37:41;;;;;;;11.43;8.57;;;9.80;99.90;;;;;;5042596;28;20045;-79
2022/11/13 12:40:30;;;;;;;10.05;8.88;;;9.80;99.90;;;;;;5046964;28;20571;-85
2022/11/13 12:43:12;;;;;;;11.30;8.45;;;9.90;99.90;;;;;;5031940;28;20045;-83
2022/11/13 12:45:49;;;;;;;9.48;8.48;;;9.90;99.90;;;;;;5060488;28;20410;-79
2022/11/13 12:48:15;;;;;;;9.90;8.55;;;9.90;99.90;;;;;;5035688;28;20049;-80
2022/11/13 12:50:41;;;;;;;10.90;8.98;;;9.90;99.90;;;;;;5030404;28;20507;-80
2022/11/13 12:53:11;;;;;;;13.85;10.15;;;9.90;99.90;;;;;;5047667;28;20044;-81
2022/11/13 12:55:40;;;;;;;11.38;8.93;;;9.90;99.90;;;;;;5035800;28;20045;-79